createdAt,value
2023-04-26T00:02:21.912Z,101859.75
2023-04-26T00:04:56.171Z,101853.50
2023-04-26T00:07:28.587Z,101856.22
2023-04-26T00:09:55.624Z,101850.34
2023-04-26T00:12:23.718Z,101855.69
2023-04-26T00:14:50.852Z,101853.75
2023-04-26T00:17:17.878Z,101864.00
2023-04-26T00:19:45.138Z,101859.31
2023-04-26T00:22:12.976Z,101858.34
2023-04-26T00:24:40.113Z,101853.91
2023-04-26T00:27:10.178Z,101862.41
2023-04-26T00:29:37.470Z,101860.28
2023-04-26T00:32:04.862Z,101851.28
2023-04-26T00:34:34.114Z,101849.44
2023-04-26T00:37:01.208Z,101845.88
2023-04-26T00:39:28.562Z,101851.78
2023-04-26T00:41:56.062Z,101836.22
2023-04-26T00:44:23.827Z,101848.34
2023-04-26T00:46:53.758Z,101846.66
2023-04-26T00:49:26.411Z,101844.72
2023-04-26T00:51:54.591Z,101828.59
2023-04-26T00:54:22.384Z,101838.88
2023-04-26T00:56:52.400Z,101841.06
2023-04-26T00:59:21.027Z,101836.75
2023-04-26T01:01:49.101Z,101826.13
2023-04-26T01:04:16.954Z,101837.16
2023-04-26T01:06:44.277Z,101837.59
2023-04-26T01:09:14.841Z,101831.91
2023-04-26T01:11:43.340Z,101843.25
2023-04-26T01:14:11.351Z,101841.19
2023-04-26T01:16:39.422Z,101849.69
2023-04-26T01:19:13.109Z,101851.34
2023-04-26T01:21:40.453Z,101849.22
2023-04-26T01:24:10.128Z,101850.91
2023-04-26T01:26:44.066Z,101852.00
2023-04-26T01:29:15.620Z,101854.47
2023-04-26T01:31:43.000Z,101855.50
2023-04-26T01:34:10.072Z,101848.41
2023-04-26T01:36:37.331Z,101857.94
2023-04-26T01:39:04.472Z,101846.34
2023-04-26T01:41:32.664Z,101860.22
2023-04-26T01:43:59.770Z,101858.47
2023-04-26T01:46:26.930Z,101851.59
2023-04-26T01:48:54.692Z,101859.28
2023-04-26T01:51:22.211Z,101848.66
2023-04-26T01:53:49.568Z,101845.56
2023-04-26T01:56:16.807Z,101843.78
2023-04-26T01:58:43.887Z,101839.38
2023-04-26T02:01:11.294Z,101840.72
2023-04-26T02:03:38.598Z,101843.78
2023-04-26T02:06:05.917Z,101847.91
2023-04-26T02:08:33.417Z,101841.91
2023-04-26T02:11:00.476Z,101842.09
2023-04-26T02:13:27.477Z,101833.31
2023-04-26T02:15:54.692Z,101834.03
2023-04-26T02:18:22.048Z,101848.00
2023-04-26T02:20:49.808Z,101836.78
2023-04-26T02:23:16.977Z,101849.97
2023-04-26T02:25:47.462Z,101840.63
2023-04-26T02:28:16.112Z,101848.25
2023-04-26T02:30:43.601Z,101846.47
2023-04-26T02:33:10.803Z,101838.28
2023-04-26T02:35:37.873Z,101846.09
2023-04-26T02:38:05.196Z,101853.38
2023-04-26T02:40:32.235Z,101850.72
2023-04-26T02:42:59.472Z,101851.41
2023-04-26T02:45:26.501Z,101849.44
2023-04-26T02:47:54.392Z,101843.25
2023-04-26T02:50:21.731Z,101843.84
2023-04-26T02:52:48.745Z,101845.13
2023-04-26T02:55:15.847Z,101837.84
2023-04-26T02:57:42.895Z,101842.28
2023-04-26T03:00:11.432Z,101846.31
2023-04-26T03:02:38.657Z,101850.97
2023-04-26T03:05:06.149Z,101847.09
2023-04-26T03:07:34.128Z,101842.59
2023-04-26T03:10:01.948Z,101831.97
2023-04-26T03:12:28.955Z,101838.16
2023-04-26T03:14:56.317Z,101838.06
2023-04-26T03:17:24.080Z,101839.66
2023-04-26T03:19:51.121Z,101837.28
2023-04-26T03:22:18.327Z,101838.75
2023-04-26T03:24:46.249Z,101840.13
2023-04-26T03:27:14.243Z,101835.50
2023-04-26T03:29:42.845Z,101839.03
2023-04-26T03:32:11.280Z,101840.22
2023-04-26T03:34:38.366Z,101833.41
2023-04-26T03:37:05.548Z,101829.47
2023-04-26T03:39:32.596Z,101831.44
2023-04-26T03:41:59.853Z,101827.22
2023-04-26T03:44:27.353Z,101828.28
2023-04-26T03:46:56.117Z,101809.00
2023-04-26T03:49:23.849Z,101828.22
2023-04-26T03:51:50.953Z,101829.97
2023-04-26T03:54:17.997Z,101831.94
2023-04-26T03:56:45.076Z,101833.94
2023-04-26T03:59:12.233Z,101835.41
2023-04-26T04:01:39.259Z,101837.53
2023-04-26T04:04:06.774Z,101826.91
2023-04-26T04:06:33.927Z,101837.22
2023-04-26T04:09:00.997Z,101838.59
2023-04-26T04:11:28.474Z,101822.25
2023-04-26T04:13:55.564Z,101828.69
2023-04-26T04:16:23.313Z,101828.00
2023-04-26T04:18:50.828Z,101835.28
2023-04-26T04:21:18.131Z,101831.84
2023-04-26T04:23:45.136Z,101828.28
2023-04-26T04:26:12.641Z,101828.59
2023-04-26T04:28:41.559Z,101821.72
2023-04-26T04:31:09.915Z,101833.41
2023-04-26T04:33:37.586Z,101836.28
2023-04-26T04:36:05.124Z,101825.19
2023-04-26T04:38:32.733Z,101827.44
2023-04-26T04:40:59.723Z,101834.72
2023-04-26T04:43:27.934Z,101831.28
2023-04-26T04:45:55.504Z,101833.53
2023-04-26T04:48:25.334Z,101841.22
2023-04-26T04:50:54.141Z,101841.22
2023-04-26T04:53:21.178Z,101836.00
2023-04-26T04:55:49.237Z,101844.38
2023-04-26T04:58:16.793Z,101838.34
2023-04-26T05:00:45.679Z,101848.88
2023-04-26T05:03:15.096Z,101842.13
2023-04-26T05:05:42.271Z,101838.16
2023-04-26T05:08:09.350Z,101828.00
2023-04-26T05:10:36.419Z,101843.09
2023-04-26T05:13:03.498Z,101836.38
2023-04-26T05:15:30.541Z,101849.66
2023-04-26T05:17:59.445Z,101853.31
2023-04-26T05:20:26.643Z,101850.91
2023-04-26T05:22:54.078Z,101852.69
2023-04-26T05:25:23.297Z,101801.44
2023-04-26T05:27:50.477Z,101846.22
2023-04-26T05:30:17.604Z,101856.34
2023-04-26T05:32:45.841Z,101853.38
2023-04-26T05:35:13.050Z,101847.69
2023-04-26T05:37:40.187Z,101856.91
2023-04-26T05:40:08.771Z,101860.22
2023-04-26T05:42:36.893Z,101857.25
2023-04-26T05:45:05.055Z,101860.53
2023-04-26T05:47:32.179Z,101857.88
2023-04-26T05:49:59.317Z,101861.25
2023-04-26T05:52:26.690Z,101860.19
2023-04-26T05:54:54.323Z,101868.78
2023-04-26T05:57:21.603Z,101841.59
2023-04-26T05:59:48.688Z,101857.22
2023-04-26T06:02:15.991Z,101856.88
2023-04-26T06:04:43.253Z,101867.53
2023-04-26T06:07:10.506Z,101867.84
2023-04-26T06:09:37.626Z,101875.59
2023-04-26T06:12:05.438Z,101868.72
2023-04-26T06:14:32.678Z,101880.38
2023-04-26T06:16:59.914Z,101875.38
2023-04-26T06:19:27.147Z,101873.53
2023-04-26T06:21:55.764Z,101877.31
2023-04-26T06:24:26.152Z,101880.75
2023-04-26T06:26:53.431Z,101876.59
2023-04-26T06:29:21.584Z,101876.09
2023-04-26T06:31:48.669Z,101879.59
2023-04-26T06:34:15.788Z,101882.28
2023-04-26T06:36:42.949Z,101878.97
2023-04-26T06:39:10.018Z,101889.31
2023-04-26T06:41:37.851Z,101884.03
2023-04-26T06:44:05.359Z,101891.53
2023-04-26T06:46:32.739Z,101887.19
2023-04-26T06:49:01.633Z,101883.13
2023-04-26T06:51:29.691Z,101888.94
2023-04-26T06:53:59.020Z,101891.22
2023-04-26T06:56:26.265Z,101898.44
2023-04-26T06:59:00.562Z,101899.28
2023-04-26T07:01:29.390Z,101907.25
2023-04-26T07:03:59.944Z,101905.59
2023-04-26T07:06:27.446Z,101904.59
2023-04-26T07:08:54.850Z,101910.66
2023-04-26T07:11:23.405Z,101896.25
2023-04-26T07:13:53.435Z,101907.91
2023-04-26T07:16:21.311Z,101908.03
2023-04-26T07:18:48.485Z,101899.34
2023-04-26T07:21:16.298Z,101904.19
2023-04-26T07:23:43.394Z,101895.91
2023-04-26T07:26:11.267Z,101897.22
2023-04-26T07:28:38.489Z,101901.13
2023-04-26T07:31:07.846Z,101891.72
2023-04-26T07:33:36.124Z,101888.06
2023-04-26T07:36:04.027Z,101875.69
2023-04-26T07:38:31.115Z,101891.41
2023-04-26T07:40:58.388Z,101890.00
2023-04-26T07:43:26.392Z,101890.34
2023-04-26T07:45:59.547Z,101896.47
2023-04-26T07:48:26.720Z,101900.50
2023-04-26T07:50:55.866Z,101896.88
2023-04-26T07:53:23.266Z,101901.34
2023-04-26T07:55:54.942Z,101900.84
2023-04-26T07:58:22.283Z,101904.91
2023-04-26T08:00:49.616Z,101904.34
2023-04-26T08:03:18.121Z,101902.09
2023-04-26T08:05:45.710Z,101907.81
2023-04-26T08:08:13.157Z,101912.97
2023-04-26T08:10:43.283Z,101907.91
2023-04-26T08:13:10.410Z,101916.88
2023-04-26T08:15:37.705Z,101920.66
2023-04-26T08:18:05.168Z,101915.66
2023-04-26T08:20:35.323Z,101900.91
2023-04-26T08:23:05.304Z,101904.00
2023-04-26T08:25:34.998Z,101908.09
2023-04-26T08:28:02.640Z,101913.19
2023-04-26T08:30:29.820Z,101915.16
2023-04-26T08:32:57.121Z,101918.16
2023-04-26T08:35:24.977Z,101911.22
2023-04-26T08:37:52.067Z,101915.91
2023-04-26T08:40:25.009Z,101909.09
2023-04-26T08:42:56.309Z,101908.94
2023-04-26T08:45:25.949Z,101912.75
2023-04-26T08:48:05.797Z,101913.56
2023-04-26T08:50:34.937Z,101909.13
2023-04-26T08:53:02.639Z,101907.56
2023-04-26T08:55:30.387Z,101914.03
2023-04-26T08:57:58.099Z,101919.78
2023-04-26T09:00:26.257Z,101920.09
2023-04-26T09:02:54.270Z,101914.56
2023-04-26T09:05:27.179Z,101914.78
2023-04-26T09:07:59.938Z,101915.84
2023-04-26T09:10:27.223Z,101915.63
2023-04-26T09:12:56.500Z,101912.16
2023-04-26T09:15:26.443Z,101903.56
2023-04-26T09:17:55.870Z,101906.94
2023-04-26T09:20:27.843Z,101905.38
2023-04-26T09:23:06.661Z,101916.34
2023-04-26T09:25:35.016Z,101917.38
2023-04-26T09:28:04.254Z,101908.75
2023-04-26T09:30:39.196Z,101916.41
2023-04-26T09:33:09.325Z,101922.38
2023-04-26T09:35:38.664Z,101912.34
2023-04-26T09:38:14.046Z,101916.00
2023-04-26T09:40:42.960Z,101925.09
2023-04-26T09:43:13.436Z,101914.41
2023-04-26T09:45:49.019Z,101909.84
2023-04-26T09:48:30.749Z,101924.25
2023-04-26T09:50:59.601Z,101916.16
2023-04-26T09:53:39.167Z,101917.28
2023-04-26T09:56:11.526Z,101911.81
2023-04-26T09:59:01.392Z,101913.47
2023-04-26T10:01:30.371Z,101907.56
2023-04-26T10:04:00.700Z,101905.16
2023-04-26T10:06:28.439Z,101907.50
2023-04-26T10:08:56.665Z,101914.91
2023-04-26T10:11:24.875Z,101914.88
2023-04-26T10:13:52.058Z,101911.03
2023-04-26T10:16:20.985Z,101902.13
2023-04-26T10:18:49.442Z,101901.31
2023-04-26T10:21:21.580Z,101910.97
2023-04-26T10:23:49.766Z,101910.94
2023-04-26T10:26:57.009Z,101913.88
2023-04-26T10:29:26.234Z,101909.78
2023-04-26T10:32:02.980Z,101917.69
2023-04-26T10:34:32.495Z,101911.16
2023-04-26T10:37:16.412Z,101904.63
2023-04-26T10:39:45.459Z,101912.34
2023-04-26T10:42:26.374Z,101909.72
2023-04-26T10:44:57.372Z,101906.50
2023-04-26T10:47:31.809Z,101907.72
2023-04-26T10:50:06.437Z,101905.69
2023-04-26T10:52:35.388Z,101898.16
2023-04-26T10:55:04.659Z,101906.75
2023-04-26T10:57:52.841Z,101904.16
2023-04-26T11:00:32.354Z,101900.34
2023-04-26T11:03:04.286Z,101897.84
2023-04-26T11:05:38.568Z,101900.59
2023-04-26T11:08:16.111Z,101900.53
2023-04-26T11:10:46.186Z,101902.84
2023-04-26T11:13:13.371Z,101907.09
2023-04-26T11:15:40.733Z,101901.22
2023-04-26T11:18:08.254Z,101892.50
2023-04-26T11:20:35.583Z,101894.69
2023-04-26T11:23:02.937Z,101901.66
2023-04-26T11:25:30.165Z,101893.25
2023-04-26T11:28:00.106Z,101879.84
2023-04-26T11:30:29.076Z,101884.41
2023-04-26T11:32:56.609Z,101876.25
2023-04-26T11:35:24.948Z,101866.19
2023-04-26T11:37:52.417Z,101883.31
2023-04-26T11:40:19.845Z,101872.41
2023-04-26T11:42:47.841Z,101878.41
2023-04-26T11:45:18.094Z,101875.28
2023-04-26T11:47:46.632Z,101867.88
2023-04-26T11:50:14.202Z,101881.25
2023-04-26T11:52:41.801Z,101882.66
2023-04-26T11:55:10.350Z,101877.69
2023-04-26T11:57:37.560Z,101877.84
2023-04-26T12:00:12.475Z,101883.88
2023-04-26T12:02:39.920Z,101880.06
2023-04-26T12:05:08.928Z,101878.06
2023-04-26T12:07:37.811Z,101876.16
2023-04-26T12:10:21.991Z,101883.00
2023-04-26T12:12:51.187Z,101878.66
2023-04-26T12:15:22.438Z,101884.53
2023-04-26T12:18:01.145Z,101876.75
2023-04-26T12:20:39.968Z,101884.59
2023-04-26T12:23:09.561Z,101884.88
2023-04-26T12:25:39.236Z,101888.78
2023-04-26T12:28:12.362Z,101893.59
2023-04-26T12:30:41.499Z,101884.75
2023-04-26T12:33:16.314Z,101881.94
2023-04-26T12:35:45.000Z,101881.84
2023-04-26T12:38:13.261Z,101884.69
2023-04-26T12:40:42.677Z,101888.56
2023-04-26T12:43:09.976Z,101880.13
2023-04-26T12:45:37.177Z,101893.22
2023-04-26T12:48:05.175Z,101898.75
2023-04-26T12:50:32.341Z,101890.59
2023-04-26T12:52:59.383Z,101894.41
2023-04-26T12:55:26.735Z,101895.94
2023-04-26T12:57:54.819Z,101886.28
2023-04-26T13:00:22.224Z,101878.84
2023-04-26T13:02:49.502Z,101891.06
2023-04-26T13:05:16.802Z,101886.13
2023-04-26T13:07:44.859Z,101888.06
2023-04-26T13:10:13.115Z,101893.09
2023-04-26T13:12:40.591Z,101890.25
2023-04-26T13:15:08.993Z,101892.34
2023-04-26T13:17:37.564Z,101889.16
2023-04-26T13:20:06.570Z,101893.50
2023-04-26T13:22:34.349Z,101896.59
2023-04-26T13:25:01.791Z,101887.22
2023-04-26T13:27:31.395Z,101894.66
2023-04-26T13:29:59.117Z,101890.66
2023-04-26T13:32:26.495Z,101895.41
2023-04-26T13:34:54.992Z,101903.47
2023-04-26T13:37:22.637Z,101889.13
2023-04-26T13:39:49.821Z,101893.19
2023-04-26T13:42:17.571Z,101904.06
2023-04-26T13:44:45.524Z,101890.41
2023-04-26T13:47:12.675Z,101915.50
2023-04-26T13:49:42.776Z,101909.88
2023-04-26T13:52:09.850Z,101911.53
2023-04-26T13:54:37.160Z,101913.41
2023-04-26T13:57:04.411Z,101909.50
2023-04-26T13:59:31.848Z,101904.53
2023-04-26T14:01:59.645Z,101895.72
2023-04-26T14:04:27.258Z,101905.41
2023-04-26T14:06:57.349Z,101906.00
2023-04-26T14:09:24.993Z,101901.72
2023-04-26T14:12:00.844Z,101897.50
2023-04-26T14:14:35.550Z,101893.75
2023-04-26T14:17:02.887Z,101889.34
2023-04-26T14:19:29.999Z,101897.97
2023-04-26T14:21:57.025Z,101894.94
2023-04-26T14:24:24.968Z,101884.84
2023-04-26T14:26:52.092Z,101885.69
2023-04-26T14:29:19.203Z,101896.25
2023-04-26T14:31:46.523Z,101897.47
2023-04-26T14:34:13.815Z,101889.19
2023-04-26T14:36:41.154Z,101888.34
2023-04-26T14:39:08.278Z,101884.75
2023-04-26T14:41:35.455Z,101884.31
2023-04-26T14:44:02.723Z,101887.75
2023-04-26T14:46:30.154Z,101882.03
2023-04-26T14:48:57.292Z,101874.97
2023-04-26T14:51:24.642Z,101893.84
2023-04-26T14:53:52.305Z,101888.75
2023-04-26T14:56:19.431Z,101886.75
2023-04-26T14:58:46.522Z,101885.34
2023-04-26T15:01:13.781Z,101882.44
2023-04-26T15:03:41.102Z,101888.03
2023-04-26T15:06:09.810Z,101882.00
2023-04-26T15:08:37.233Z,101886.88
2023-04-26T15:11:04.429Z,101887.72
2023-04-26T15:13:31.470Z,101886.06
2023-04-26T15:16:04.619Z,101879.41
2023-04-26T15:18:33.614Z,101882.56
2023-04-26T15:21:00.736Z,101880.94
2023-04-26T15:23:27.793Z,101882.53
2023-04-26T15:25:55.948Z,101893.63
2023-04-26T15:28:22.999Z,101876.19
2023-04-26T15:30:50.512Z,101885.22
2023-04-26T15:33:17.986Z,101874.25
2023-04-26T15:35:45.335Z,101874.44
2023-04-26T15:38:12.439Z,101872.81
2023-04-26T15:40:39.505Z,101863.28
2023-04-26T15:43:06.594Z,101872.09
2023-04-26T15:45:35.942Z,101875.41
2023-04-26T15:48:03.132Z,101871.94
2023-04-26T15:50:30.179Z,101866.31
2023-04-26T15:52:58.228Z,101871.34
2023-04-26T15:55:26.177Z,101883.06
2023-04-26T15:57:53.338Z,101877.72
2023-04-26T16:00:21.408Z,101879.97
2023-04-26T16:02:48.617Z,101876.41
2023-04-26T16:05:16.049Z,101882.13
2023-04-26T16:07:43.197Z,101876.50
2023-04-26T16:10:10.536Z,101891.63
2023-04-26T16:12:39.655Z,101883.84
2023-04-26T16:15:08.510Z,101884.72
2023-04-26T16:17:36.804Z,101886.59
2023-04-26T16:20:06.847Z,101883.56
2023-04-26T16:22:35.388Z,101888.63
2023-04-26T16:25:06.701Z,101885.09
2023-04-26T16:27:35.821Z,101879.13
2023-04-26T16:30:04.373Z,101883.78
2023-04-26T16:32:32.259Z,101882.97
2023-04-26T16:34:59.418Z,101889.00
2023-04-26T16:37:26.576Z,101891.06
2023-04-26T16:39:55.935Z,101886.81
2023-04-26T16:42:23.103Z,101881.94
2023-04-26T16:44:50.322Z,101875.00
2023-04-26T16:47:17.418Z,101879.66
2023-04-26T16:49:44.486Z,101883.69
2023-04-26T16:52:11.568Z,101884.09
2023-04-26T16:54:38.651Z,101885.81
2023-04-26T16:57:05.908Z,101880.72
2023-04-26T16:59:33.029Z,101890.41
2023-04-26T17:02:00.249Z,101875.50
2023-04-26T17:04:27.735Z,101883.34
2023-04-26T17:06:57.850Z,101884.19
2023-04-26T17:09:25.805Z,101869.16
2023-04-26T17:11:52.962Z,101881.13
2023-04-26T17:14:20.075Z,101883.25
2023-04-26T17:16:47.296Z,101885.75
2023-04-26T17:19:14.408Z,101891.88
2023-04-26T17:21:41.537Z,101894.41
2023-04-26T17:24:08.734Z,101898.53
2023-04-26T17:26:35.812Z,101897.81
2023-04-26T17:29:03.060Z,101898.03
2023-04-26T17:31:30.241Z,101895.34
2023-04-26T17:33:58.164Z,101897.03
2023-04-26T17:36:26.599Z,101892.75
2023-04-26T17:38:53.726Z,101900.59
2023-04-26T17:41:22.475Z,101898.88
2023-04-26T17:43:49.622Z,101902.63
2023-04-26T17:46:16.751Z,101904.91
2023-04-26T17:48:43.878Z,101905.97
2023-04-26T17:51:11.748Z,101903.34
2023-04-26T17:53:38.991Z,101901.75
2023-04-26T17:56:07.648Z,101913.56
2023-04-26T17:58:35.267Z,101911.91
2023-04-26T18:01:05.818Z,101909.41
2023-04-26T18:03:35.763Z,101916.59
2023-04-26T18:06:03.756Z,101920.28
2023-04-26T18:08:31.016Z,101919.66
2023-04-26T18:10:58.315Z,101919.41
2023-04-26T18:13:26.206Z,101928.16
2023-04-26T18:15:55.821Z,101921.72
2023-04-26T18:18:24.052Z,101937.56
2023-04-26T18:20:52.234Z,101929.06
2023-04-26T18:23:19.582Z,101914.94
2023-04-26T18:25:47.043Z,101925.63
2023-04-26T18:28:14.352Z,101930.19
2023-04-26T18:30:41.607Z,101932.44
2023-04-26T18:33:08.835Z,101935.47
2023-04-26T18:35:36.666Z,101934.44
2023-04-26T18:38:04.379Z,101934.00
2023-04-26T18:40:31.479Z,101936.84
2023-04-26T18:42:58.847Z,101924.41
2023-04-26T18:45:26.355Z,101944.72
2023-04-26T18:47:55.376Z,101937.41
2023-04-26T18:50:22.678Z,101941.88
2023-04-26T18:52:49.757Z,101943.50
2023-04-26T18:55:16.926Z,101942.25
2023-04-26T18:57:44.012Z,101938.88
2023-04-26T19:00:12.187Z,101940.72
2023-04-26T19:02:42.254Z,101947.81
2023-04-26T19:05:10.721Z,101945.38
2023-04-26T19:07:37.908Z,101937.56
2023-04-26T19:10:07.074Z,101936.06
2023-04-26T19:12:34.350Z,101939.44
2023-04-26T19:15:01.940Z,101938.97
2023-04-26T19:17:29.472Z,101954.09
2023-04-26T19:19:56.795Z,101950.78
2023-04-26T19:22:24.256Z,101956.56
2023-04-26T19:24:51.708Z,101952.16
2023-04-26T19:27:18.843Z,101951.41
2023-04-26T19:29:46.085Z,101957.25
2023-04-26T19:32:14.349Z,101961.34
2023-04-26T19:34:41.393Z,101971.09
2023-04-26T19:37:08.488Z,101963.84
2023-04-26T19:39:35.916Z,101967.97
2023-04-26T19:42:03.457Z,101966.41
2023-04-26T19:44:31.287Z,101968.03
2023-04-26T19:46:58.566Z,101964.28
2023-04-26T19:49:28.473Z,101970.88
2023-04-26T19:51:56.549Z,101972.53
2023-04-26T19:54:23.969Z,101978.47
2023-04-26T19:56:51.142Z,101971.31
2023-04-26T19:59:18.319Z,101965.78
2023-04-26T20:01:45.675Z,101976.41
2023-04-26T20:04:12.989Z,101974.47
2023-04-26T20:06:40.501Z,101982.06
2023-04-26T20:09:07.933Z,101975.28
2023-04-26T20:11:35.591Z,101986.47
2023-04-26T20:14:02.961Z,101969.69
2023-04-26T20:16:30.052Z,101982.78
2023-04-26T20:18:57.671Z,101984.41
2023-04-26T20:21:26.605Z,101980.06
2023-04-26T20:23:55.147Z,101989.47
2023-04-26T20:26:22.232Z,101988.53
2023-04-26T20:28:49.696Z,101996.16
2023-04-26T20:31:16.777Z,101992.78
2023-04-26T20:33:43.941Z,101993.50
2023-04-26T20:36:11.496Z,101984.66
2023-04-26T20:38:38.976Z,101991.19
2023-04-26T20:41:06.332Z,101986.84
2023-04-26T20:43:33.545Z,101982.41
2023-04-26T20:46:01.621Z,101991.69
2023-04-26T20:48:28.864Z,101997.81
2023-04-26T20:50:58.726Z,101997.56
2023-04-26T20:53:26.980Z,101996.53
2023-04-26T20:55:54.226Z,101983.09
2023-04-26T20:58:21.310Z,101987.75
2023-04-26T21:00:56.073Z,101977.88
2023-04-26T21:03:23.343Z,101975.13
2023-04-26T21:05:51.115Z,101986.06
2023-04-26T21:08:18.318Z,101990.25
2023-04-26T21:10:45.415Z,101986.69
2023-04-26T21:13:13.874Z,101990.19
2023-04-26T21:15:41.133Z,101984.13
2023-04-26T21:18:08.550Z,101979.22
2023-04-26T21:20:35.791Z,101976.56
2023-04-26T21:23:02.880Z,101985.72
2023-04-26T21:25:30.004Z,101980.34
2023-04-26T21:27:58.754Z,101991.09
2023-04-26T21:30:26.821Z,101994.94
2023-04-26T21:32:54.255Z,102000.69
2023-04-26T21:35:21.697Z,101994.31
2023-04-26T21:37:48.862Z,101994.91
2023-04-26T21:40:16.010Z,101993.88
2023-04-26T21:42:46.712Z,101994.59
2023-04-26T21:45:21.605Z,101992.72
2023-04-26T21:47:48.720Z,101994.50
2023-04-26T21:50:16.029Z,101998.47
2023-04-26T21:52:43.132Z,102003.28
2023-04-26T21:55:10.539Z,102000.38
2023-04-26T21:57:37.645Z,101994.72
2023-04-26T22:00:11.610Z,101987.91
2023-04-26T22:02:39.232Z,101992.78
2023-04-26T22:05:06.988Z,102000.28
2023-04-26T22:07:35.395Z,102000.13
2023-04-26T22:10:03.395Z,101994.81
2023-04-26T22:12:30.528Z,101995.69
2023-04-26T22:14:57.903Z,101995.69
2023-04-26T22:17:25.284Z,101989.25
2023-04-26T22:19:52.416Z,102000.09
2023-04-26T22:22:19.572Z,101995.25
2023-04-26T22:24:46.628Z,101993.47
2023-04-26T22:27:13.759Z,101999.31
2023-04-26T22:29:40.825Z,102000.09
2023-04-26T22:32:08.088Z,102004.09
2023-04-26T22:34:35.929Z,102000.06
2023-04-26T22:37:17.079Z,101999.91
2023-04-26T22:39:47.001Z,102012.09
2023-04-26T22:42:13.997Z,102007.16
2023-04-26T22:44:41.920Z,102010.78
2023-04-26T22:47:09.107Z,102013.66
2023-04-26T22:49:36.316Z,102012.84
2023-04-26T22:52:11.682Z,102000.63
2023-04-26T22:54:44.328Z,102009.22
2023-04-26T22:57:11.462Z,102011.50
2023-04-26T22:59:38.661Z,102019.50
2023-04-26T23:02:05.933Z,102020.06
2023-04-26T23:04:33.002Z,102023.22
2023-04-26T23:07:00.066Z,102021.44
2023-04-26T23:09:27.136Z,102018.78
2023-04-26T23:11:54.293Z,102019.66
2023-04-26T23:14:21.465Z,102020.63
2023-04-26T23:16:48.806Z,102022.50
2023-04-26T23:19:16.270Z,102043.41
2023-04-26T23:21:43.702Z,102028.66
2023-04-26T23:24:10.947Z,102037.91
2023-04-26T23:26:37.992Z,102036.53
2023-04-26T23:29:05.588Z,102038.72
2023-04-26T23:31:32.724Z,102038.34
2023-04-26T23:33:59.970Z,102039.22
2023-04-26T23:36:27.669Z,102045.25
2023-04-26T23:38:55.317Z,102048.75
2023-04-26T23:41:22.506Z,102041.69
2023-04-26T23:43:49.646Z,102034.59
2023-04-26T23:46:16.809Z,102034.59
2023-04-26T23:48:43.978Z,102037.06
2023-04-26T23:51:11.107Z,102035.97
2023-04-26T23:53:39.700Z,102046.44
2023-04-26T23:56:07.732Z,102046.31
2023-04-26T23:58:35.480Z,102053.69
